sensor_id;sensor_type;location;lat;lon;timestamp;pressure;altitude;pressure_sealevel;temperature;humidity
29315;BME280;16320;53.954;9.506;2023-01-31T00:02:46;101435.31;;;3.09;100.00
29315;BME280;16320;53.954;9.506;2023-01-31T00:05:51;101427.50;;;3.12;100.00
29315;BME280;16320;53.954;9.506;2023-01-31T00:08:58;101424.94;;;3.10;100.00
29315;BME280;16320;53.954;9.506;2023-01-31T00:12:03;101437.06;;;3.05;100.00
29315;BME280;16320;53.954;9.506;2023-01-31T00:15:08;101450.97;;;3.01;100.00
29315;BME280;16320;53.954;9.506;2023-01-31T00:18:13;101455.28;;;3.01;100.00
29315;BME280;16320;53.954;9.506;2023-01-31T00:21:22;101452.75;;;2.96;100.00
29315;BME280;16320;53.954;9.506;2023-01-31T00:24:27;101464.00;;;2.92;100.00
29315;BME280;16320;53.954;9.506;2023-01-31T00:27:31;101463.19;;;2.87;100.00
29315;BME280;16320;53.954;9.506;2023-01-31T00:30:35;101477.03;;;2.86;100.00
29315;BME280;16320;53.954;9.506;2023-01-31T00:33:43;101476.16;;;2.88;100.00
29315;BME280;16320;53.954;9.506;2023-01-31T00:36:48;101488.25;;;2.92;100.00
29315;BME280;16320;53.954;9.506;2023-01-31T00:39:53;101499.47;;;2.93;100.00
29315;BME280;16320;53.954;9.506;2023-01-31T00:42:57;101511.56;;;2.94;100.00
29315;BME280;16320;53.954;9.506;2023-01-31T00:46:02;101504.63;;;2.98;100.00
29315;BME280;16320;53.954;9.506;2023-01-31T00:49:07;101495.97;;;2.94;100.00
29315;BME280;16320;53.954;9.506;2023-01-31T00:52:11;101482.16;;;2.92;100.00
29315;BME280;16320;53.954;9.506;2023-01-31T00:55:16;101487.31;;;2.98;100.00
29315;BME280;16320;53.954;9.506;2023-01-31T00:58:21;101478.66;;;3.01;100.00
29315;BME280;16320;53.954;9.506;2023-01-31T01:01:27;101483.78;;;3.04;100.00
29315;BME280;16320;53.954;9.506;2023-01-31T01:04:32;101469.91;;;3.09;100.00
29315;BME280;16320;53.954;9.506;2023-01-31T01:07:38;101469.91;;;3.09;100.00
29315;BME280;16320;53.954;9.506;2023-01-31T01:10:42;101469.09;;;3.07;100.00
29315;BME280;16320;53.954;9.506;2023-01-31T01:13:48;101462.13;;;3.09;100.00
29315;BME280;16320;53.954;9.506;2023-01-31T01:16:52;101462.97;;;3.13;100.00
29315;BME280;16320;53.954;9.506;2023-01-31T01:19:57;101453.41;;;3.17;100.00
29315;BME280;16320;53.954;9.506;2023-01-31T01:23:06;101468.97;;;3.18;100.00
29315;BME280;16320;53.954;9.506;2023-01-31T01:26:20;101449.97;;;3.13;100.00
29315;BME280;16320;53.954;9.506;2023-01-31T01:29:25;101457.81;;;3.08;100.00
29315;BME280;16320;53.954;9.506;2023-01-31T01:32:29;101452.72;;;2.99;100.00
29315;BME280;16320;53.954;9.506;2023-01-31T01:35:33;101468.25;;;3.02;100.00
29315;BME280;16320;53.954;9.506;2023-01-31T01:38:39;101468.25;;;3.02;100.00
29315;BME280;16320;53.954;9.506;2023-01-31T01:41:44;101473.38;;;3.07;100.00
29315;BME280;16320;53.954;9.506;2023-01-31T01:44:59;101491.53;;;3.08;100.00
29315;BME280;16320;53.954;9.506;2023-01-31T01:48:06;101480.28;;;3.11;100.00
29315;BME280;16320;53.954;9.506;2023-01-31T01:51:13;101489.75;;;3.17;100.00
29315;BME280;16320;53.954;9.506;2023-01-31T01:54:35;101505.34;;;3.15;100.00
29315;BME280;16320;53.954;9.506;2023-01-31T01:57:41;101507.13;;;3.10;100.00
29315;BME280;16320;53.954;9.506;2023-01-31T02:00:47;101506.25;;;3.09;100.00
29315;BME280;16320;53.954;9.506;2023-01-31T02:03:52;101495.00;;;3.10;100.00
29315;BME280;16320;53.954;9.506;2023-01-31T02:06:57;101501.09;;;3.06;100.00
29315;BME280;16320;53.954;9.506;2023-01-31T02:10:22;101511.47;;;3.06;100.00
29315;BME280;16320;53.954;9.506;2023-01-31T02:13:29;101511.44;;;3.11;100.00
29315;BME280;16320;53.954;9.506;2023-01-31T02:16:35;101495.88;;;3.09;100.00
29315;BME280;16320;53.954;9.506;2023-01-31T02:34:13;101490.78;;;2.97;100.00
29315;BME280;16320;53.954;9.506;2023-01-31T02:40:51;101482.16;;;2.95;100.00
29315;BME280;16320;53.954;9.506;2023-01-31T02:51:22;101488.16;;;2.99;100.00
29315;BME280;16320;53.954;9.506;2023-01-31T02:54:28;101482.94;;;3.02;100.00
29315;BME280;16320;53.954;9.506;2023-01-31T02:57:56;101476.88;;;3.07;100.00
29315;BME280;16320;53.954;9.506;2023-01-31T03:01:04;101490.72;;;3.06;100.00
29315;BME280;16320;53.954;9.506;2023-01-31T03:04:12;101473.38;;;3.10;100.00
29315;BME280;16320;53.954;9.506;2023-01-31T03:07:26;101475.97;;;3.10;100.00
29315;BME280;16320;53.954;9.506;2023-01-31T03:11:01;101485.53;;;3.03;100.00
29315;BME280;16320;53.954;9.506;2023-01-31T03:14:34;101482.09;;;3.03;100.00
29315;BME280;16320;53.954;9.506;2023-01-31T03:18:09;101472.56;;;3.05;100.00
29315;BME280;16320;53.954;9.506;2023-01-31T03:21:25;101469.94;;;3.06;100.00
29315;BME280;16320;53.954;9.506;2023-01-31T03:24:33;101471.63;;;3.14;100.00
29315;BME280;16320;53.954;9.506;2023-01-31T03:27:40;101461.16;;;3.20;100.00
29315;BME280;16320;53.954;9.506;2023-01-31T03:34:07;101461.13;;;3.23;100.00
29315;BME280;16320;53.954;9.506;2023-01-31T03:37:32;101453.31;;;3.26;100.00
29315;BME280;16320;53.954;9.506;2023-01-31T03:44:48;101457.63;;;3.30;100.00
29315;BME280;16320;53.954;9.506;2023-01-31T03:47:56;101444.53;;;3.38;100.00
29315;BME280;16320;53.954;9.506;2023-01-31T03:51:06;101441.91;;;3.42;100.00
29315;BME280;16320;53.954;9.506;2023-01-31T03:54:25;101459.22;;;3.43;100.00
29315;BME280;16320;53.954;9.506;2023-01-31T03:57:34;101454.84;;;3.48;100.00
29315;BME280;16320;53.954;9.506;2023-01-31T04:00:42;101457.41;;;3.52;100.00
29315;BME280;16320;53.954;9.506;2023-01-31T04:04:23;101438.28;;;3.56;100.00
29315;BME280;16320;53.954;9.506;2023-01-31T04:07:29;101437.44;;;3.55;100.00
29315;BME280;16320;53.954;9.506;2023-01-31T04:10:34;101433.97;;;3.56;100.00
29315;BME280;16320;53.954;9.506;2023-01-31T04:13:38;101442.63;;;3.55;100.00
29315;BME280;16320;53.954;9.506;2023-01-31T04:16:43;101434.88;;;3.51;100.00
29315;BME280;16320;53.954;9.506;2023-01-31T04:19:47;101420.16;;;3.54;100.00
29315;BME280;16320;53.954;9.506;2023-01-31T04:22:51;101432.22;;;3.57;100.00
29315;BME280;16320;53.954;9.506;2023-01-31T04:25:56;101432.28;;;3.52;100.00
29315;BME280;16320;53.954;9.506;2023-01-31T04:29:01;101431.38;;;3.56;100.00
29315;BME280;16320;53.954;9.506;2023-01-31T04:32:05;101430.44;;;3.60;100.00
29315;BME280;16320;53.954;9.506;2023-01-31T04:35:09;101427.88;;;3.59;100.00
29315;BME280;16320;53.954;9.506;2023-01-31T04:38:14;101431.41;;;3.55;100.00
29315;BME280;16320;53.954;9.506;2023-01-31T04:41:19;101436.59;;;3.55;100.00
29315;BME280;16320;53.954;9.506;2023-01-31T04:44:23;101433.84;;;3.65;100.00
29315;BME280;16320;53.954;9.506;2023-01-31T04:47:27;101431.31;;;3.62;100.00
29315;BME280;16320;53.954;9.506;2023-01-31T04:50:32;101423.53;;;3.62;100.00
29315;BME280;16320;53.954;9.506;2023-01-31T04:53:37;101429.63;;;3.57;100.00
29315;BME280;16320;53.954;9.506;2023-01-31T04:56:41;101431.31;;;3.64;100.00
29315;BME280;16320;53.954;9.506;2023-01-31T04:59:46;101425.22;;;3.63;100.00
29315;BME280;16320;53.954;9.506;2023-01-31T05:02:50;101426.94;;;3.64;100.00
29315;BME280;16320;53.954;9.506;2023-01-31T05:05:55;101432.16;;;3.64;100.00
29315;BME280;16320;53.954;9.506;2023-01-31T05:08:59;101431.34;;;3.61;100.00
29315;BME280;16320;53.954;9.506;2023-01-31T05:12:05;101427.81;;;3.63;100.00
29315;BME280;16320;53.954;9.506;2023-01-31T05:15:10;101425.19;;;3.66;100.00
29315;BME280;16320;53.954;9.506;2023-01-31T05:18:15;101422.56;;;3.68;100.00
29315;BME280;16320;53.954;9.506;2023-01-31T05:21:20;101422.47;;;3.77;100.00
29315;BME280;16320;53.954;9.506;2023-01-31T05:24:34;101422.53;;;3.71;100.00
29315;BME280;16320;53.954;9.506;2023-01-31T05:27:40;101423.34;;;3.76;100.00
29315;BME280;16320;53.954;9.506;2023-01-31T05:30:44;101432.78;;;3.83;100.00
29315;BME280;16320;53.954;9.506;2023-01-31T05:33:49;101427.63;;;3.80;100.00
29315;BME280;16320;53.954;9.506;2023-01-31T05:36:55;101417.31;;;3.74;100.00
29315;BME280;16320;53.954;9.506;2023-01-31T05:40:00;101419.06;;;3.72;100.00
29315;BME280;16320;53.954;9.506;2023-01-31T05:43:04;101419.13;;;3.69;100.00
29315;BME280;16320;53.954;9.506;2023-01-31T05:46:09;101418.19;;;3.72;100.00
29315;BME280;16320;53.954;9.506;2023-01-31T05:49:15;101419.94;;;3.73;100.00
29315;BME280;16320;53.954;9.506;2023-01-31T05:52:19;101413.91;;;3.69;100.00
29315;BME280;16320;53.954;9.506;2023-01-31T05:55:25;101396.56;;;3.71;100.00
29315;BME280;16320;53.954;9.506;2023-01-31T05:58:29;101393.09;;;3.72;100.00
29315;BME280;16320;53.954;9.506;2023-01-31T06:01:33;101396.44;;;3.80;100.00
29315;BME280;16320;53.954;9.506;2023-01-31T06:04:38;101387.94;;;3.69;100.00
29315;BME280;16320;53.954;9.506;2023-01-31T06:07:42;101390.50;;;3.72;100.00
29315;BME280;16320;53.954;9.506;2023-01-31T06:10:46;101391.38;;;3.71;100.00
29315;BME280;16320;53.954;9.506;2023-01-31T06:13:51;101386.13;;;3.74;100.00
29315;BME280;16320;53.954;9.506;2023-01-31T06:16:55;101383.56;;;3.73;100.00
29315;BME280;16320;53.954;9.506;2023-01-31T06:19:59;101391.38;;;3.71;100.00
29315;BME280;16320;53.954;9.506;2023-01-31T06:23:03;101371.44;;;3.70;100.00
29315;BME280;16320;53.954;9.506;2023-01-31T06:26:08;101361.94;;;3.69;100.00
29315;BME280;16320;53.954;9.506;2023-01-31T06:29:12;101367.16;;;3.69;100.00
29315;BME280;16320;53.954;9.506;2023-01-31T06:32:17;101349.75;;;3.74;100.00
29315;BME280;16320;53.954;9.506;2023-01-31T06:35:21;101348.91;;;3.74;100.00
29315;BME280;16320;53.954;9.506;2023-01-31T06:38:27;101345.38;;;3.76;100.00
29315;BME280;16320;53.954;9.506;2023-01-31T06:41:32;101344.59;;;3.71;100.00
29315;BME280;16320;53.954;9.506;2023-01-31T06:44:36;101339.34;;;3.74;100.00
29315;BME280;16320;53.954;9.506;2023-01-31T06:47:41;101343.66;;;3.75;100.00
29315;BME280;16320;53.954;9.506;2023-01-31T06:50:47;101330.59;;;3.80;100.00
29315;BME280;16320;53.954;9.506;2023-01-31T06:53:51;101318.47;;;3.82;100.00
29315;BME280;16320;53.954;9.506;2023-01-31T06:56:56;101315.91;;;3.79;100.00
29315;BME280;16320;53.954;9.506;2023-01-31T07:00:02;101306.31;;;3.82;100.00
29315;BME280;16320;53.954;9.506;2023-01-31T07:03:06;101298.59;;;3.78;100.00
29315;BME280;16320;53.954;9.506;2023-01-31T07:06:11;101287.41;;;3.73;100.00
29315;BME280;16320;53.954;9.506;2023-01-31T07:09:17;101289.06;;;3.78;100.00
29315;BME280;16320;53.954;9.506;2023-01-31T07:12:21;101290.78;;;3.79;100.00
29315;BME280;16320;53.954;9.506;2023-01-31T07:15:26;101284.78;;;3.76;100.00
29315;BME280;16320;53.954;9.506;2023-01-31T07:18:30;101284.78;;;3.74;100.00
29315;BME280;16320;53.954;9.506;2023-01-31T07:21:35;101286.38;;;3.83;100.00
29315;BME280;16320;53.954;9.506;2023-01-31T07:24:39;101269.88;;;3.87;100.00
29315;BME280;16320;53.954;9.506;2023-01-31T07:27:44;101263.88;;;3.83;100.00
29315;BME280;16320;53.954;9.506;2023-01-31T07:30:49;101267.25;;;3.90;100.00
29315;BME280;16320;53.954;9.506;2023-01-31T07:33:55;101261.16;;;3.90;100.00
29315;BME280;16320;53.954;9.506;2023-01-31T07:36:59;101265.50;;;3.91;100.00
29315;BME280;16320;53.954;9.506;2023-01-31T07:40:05;101250.69;;;3.96;100.00
29315;BME280;16320;53.954;9.506;2023-01-31T07:43:10;101258.38;;;4.02;100.00
29315;BME280;16320;53.954;9.506;2023-01-31T07:46:14;101252.38;;;3.98;100.00
29315;BME280;16320;53.954;9.506;2023-01-31T07:49:19;101249.72;;;4.03;100.00
29315;BME280;16320;53.954;9.506;2023-01-31T07:52:24;101241.00;;;4.04;100.00
29315;BME280;16320;53.954;9.506;2023-01-31T07:55:28;101236.78;;;4.00;100.00
29315;BME280;16320;53.954;9.506;2023-01-31T07:58:38;101238.59;;;3.95;100.00
29315;BME280;16320;53.954;9.506;2023-01-31T08:01:42;101242.06;;;3.94;100.00
29315;BME280;16320;53.954;9.506;2023-01-31T08:05:07;101241.97;;;4.00;100.00
29315;BME280;16320;53.954;9.506;2023-01-31T08:08:12;101232.47;;;3.96;100.00
29315;BME280;16320;53.954;9.506;2023-01-31T08:11:16;101237.69;;;3.96;100.00
29315;BME280;16320;53.954;9.506;2023-01-31T08:14:20;101247.22;;;3.97;100.00
29315;BME280;16320;53.954;9.506;2023-01-31T08:17:30;101247.16;;;4.00;100.00
29315;BME280;16320;53.954;9.506;2023-01-31T08:20:35;101251.44;;;4.02;100.00
29315;BME280;16320;53.954;9.506;2023-01-31T08:23:42;101247.22;;;3.97;100.00
29315;BME280;16320;53.954;9.506;2023-01-31T08:26:46;101241.91;;;4.03;100.00
29315;BME280;16320;53.954;9.506;2023-01-31T08:29:50;101236.69;;;4.05;100.00
29315;BME280;16320;53.954;9.506;2023-01-31T08:32:55;101243.63;;;4.04;100.00
29315;BME280;16320;53.954;9.506;2023-01-31T08:36:29;101239.16;;;4.12;100.00
29315;BME280;16320;53.954;9.506;2023-01-31T08:39:35;101244.38;;;4.11;100.00
29315;BME280;16320;53.954;9.506;2023-01-31T08:42:39;101240.91;;;4.12;100.00
29315;BME280;16320;53.954;9.506;2023-01-31T08:45:44;101226.25;;;4.06;100.00
29315;BME280;16320;53.954;9.506;2023-01-31T08:48:48;101231.44;;;4.06;100.00
29315;BME280;16320;53.954;9.506;2023-01-31T08:51:52;101225.28;;;4.12;100.00
29315;BME280;16320;53.954;9.506;2023-01-31T08:54:57;101222.72;;;4.10;100.00
29315;BME280;16320;53.954;9.506;2023-01-31T08:58:02;101218.31;;;4.15;100.00
29315;BME280;16320;53.954;9.506;2023-01-31T09:01:15;101221.81;;;4.14;100.00
29315;BME280;16320;53.954;9.506;2023-01-31T09:04:21;101227.88;;;4.13;100.00
29315;BME280;16320;53.954;9.506;2023-01-31T09:07:25;101227.81;;;4.16;100.00
29315;BME280;16320;53.954;9.506;2023-01-31T09:10:29;101230.31;;;4.22;100.00
29315;BME280;16320;53.954;9.506;2023-01-31T09:13:35;101226.91;;;4.19;100.00
29315;BME280;16320;53.954;9.506;2023-01-31T09:16:39;101226.84;;;4.22;100.00
29315;BME280;16320;53.954;9.506;2023-01-31T09:19:46;101226.00;;;4.21;100.00
29315;BME280;16320;53.954;9.506;2023-01-31T09:22:51;101216.47;;;4.20;100.00
29315;BME280;16320;53.954;9.506;2023-01-31T09:25:56;101215.56;;;4.25;100.00
29315;BME280;16320;53.954;9.506;2023-01-31T09:29:01;101219.03;;;4.24;100.00
29315;BME280;16320;53.954;9.506;2023-01-31T09:32:06;101225.91;;;4.28;100.00
29315;BME280;16320;53.954;9.506;2023-01-31T09:35:12;101216.47;;;4.20;100.00
29315;BME280;16320;53.954;9.506;2023-01-31T09:38:17;101219.78;;;4.29;100.00
29315;BME280;16320;53.954;9.506;2023-01-31T09:44:54;101215.44;;;4.31;100.00
29315;BME280;16320;53.954;9.506;2023-01-31T09:48:01;101208.53;;;4.28;100.00
29315;BME280;16320;53.954;9.506;2023-01-31T09:51:06;101205.88;;;4.31;100.00
29315;BME280;16320;53.954;9.506;2023-01-31T09:54:19;101205.03;;;4.31;100.00
29315;BME280;16320;53.954;9.506;2023-01-31T09:57:52;101193.75;;;4.30;100.00
29315;BME280;16320;53.954;9.506;2023-01-31T10:01:39;101192.81;;;4.36;100.00
29315;BME280;16320;53.954;9.506;2023-01-31T10:11:59;101179.72;;;4.40;100.00
29315;BME280;16320;53.954;9.506;2023-01-31T10:15:43;101170.22;;;4.38;100.00
29315;BME280;16320;53.954;9.506;2023-01-31T10:19:01;101163.22;;;4.42;100.00
29315;BME280;16320;53.954;9.506;2023-01-31T10:22:17;101147.53;;;4.46;100.00
29315;BME280;16320;53.954;9.506;2023-01-31T10:29:22;101152.63;;;4.52;100.00
29315;BME280;16320;53.954;9.506;2023-01-31T10:32:42;101157.78;;;4.54;100.00
29315;BME280;16320;53.954;9.506;2023-01-31T10:35:51;101149.00;;;4.59;100.00
29315;BME280;16320;53.954;9.506;2023-01-31T10:39:34;101144.66;;;4.60;100.00
29315;BME280;16320;53.954;9.506;2023-01-31T10:42:44;101160.88;;;4.73;100.00
29315;BME280;16320;53.954;9.506;2023-01-31T10:45:51;101153.91;;;4.75;100.00
29315;BME280;16320;53.954;9.506;2023-01-31T10:48:55;101159.81;;;4.82;100.00
29315;BME280;16320;53.954;9.506;2023-01-31T10:56:06;101179.53;;;4.93;100.00
29315;BME280;16320;53.954;9.506;2023-01-31T10:59:33;101169.00;;;5.00;100.00
29315;BME280;16320;53.954;9.506;2023-01-31T11:02:39;101151.59;;;5.02;100.00
29315;BME280;16320;53.954;9.506;2023-01-31T11:05:56;101154.16;;;5.03;100.00
29315;BME280;16320;53.954;9.506;2023-01-31T11:09:02;101156.56;;;5.12;100.00
29315;BME280;16320;53.954;9.506;2023-01-31T11:12:07;101151.31;;;5.14;100.00
29315;BME280;16320;53.954;9.506;2023-01-31T11:15:18;101153.13;;;5.12;100.00
29315;BME280;16320;53.954;9.506;2023-01-31T11:18:34;101147.75;;;5.18;100.00
29315;BME280;16320;53.954;9.506;2023-01-31T11:21:39;101148.59;;;5.20;100.00
29315;BME280;16320;53.954;9.506;2023-01-31T11:24:46;101147.63;;;5.24;100.00
29315;BME280;16320;53.954;9.506;2023-01-31T11:27:59;101151.13;;;5.23;100.00
29315;BME280;16320;53.954;9.506;2023-01-31T11:31:20;101145.03;;;5.23;100.00
29315;BME280;16320;53.954;9.506;2023-01-31T11:34:29;101141.50;;;5.27;100.00
29315;BME280;16320;53.954;9.506;2023-01-31T11:37:33;101158.78;;;5.29;100.00
29315;BME280;16320;53.954;9.506;2023-01-31T11:40:39;101143.13;;;5.31;100.00
29315;BME280;16320;53.954;9.506;2023-01-31T11:43:44;101145.69;;;5.32;100.00
29315;BME280;16320;53.954;9.506;2023-01-31T11:46:55;101134.34;;;5.35;100.00
29315;BME280;16320;53.954;9.506;2023-01-31T11:50:00;101127.31;;;5.39;100.00
29315;BME280;16320;53.954;9.506;2023-01-31T11:53:28;101124.63;;;5.42;100.00
29315;BME280;16320;53.954;9.506;2023-01-31T11:56:36;101137.66;;;5.42;100.00
29315;BME280;16320;53.954;9.506;2023-01-31T11:59:41;101129.78;;;5.45;100.00
29315;BME280;16320;53.954;9.506;2023-01-31T12:03:15;101127.06;;;5.49;100.00
29315;BME280;16320;53.954;9.506;2023-01-31T12:06:39;101115.78;;;5.49;100.00
29315;BME280;16320;53.954;9.506;2023-01-31T12:09:44;101126.13;;;5.52;100.00
29315;BME280;16320;53.954;9.506;2023-01-31T12:12:51;101119.19;;;5.53;100.00
29315;BME280;16320;53.954;9.506;2023-01-31T12:16:00;101120.81;;;5.57;100.00
29315;BME280;16320;53.954;9.506;2023-01-31T12:19:33;101105.22;;;5.55;100.00
29315;BME280;16320;53.954;9.506;2023-01-31T12:29:59;101099.56;;;5.74;100.00
29315;BME280;16320;53.954;9.506;2023-01-31T12:40:46;101095.81;;;5.84;100.00
29315;BME280;16320;53.954;9.506;2023-01-31T12:53:48;101093.50;;;5.72;100.00
29315;BME280;16320;53.954;9.506;2023-01-31T12:57:37;101092.69;;;5.69;100.00
29315;BME280;16320;53.954;9.506;2023-01-31T13:01:05;101087.44;;;5.71;100.00
29315;BME280;16320;53.954;9.506;2023-01-31T13:05:32;101078.69;;;5.74;100.00
29315;BME280;16320;53.954;9.506;2023-01-31T13:08:29;101083.56;;;5.86;100.00
29315;BME280;16320;53.954;9.506;2023-01-31T13:18:25;101079.78;;;5.99;100.00
29315;BME280;16320;53.954;9.506;2023-01-31T13:21:35;101070.19;;;6.01;100.00
29315;BME280;16320;53.954;9.506;2023-01-31T13:24:46;101062.28;;;6.04;100.00
29315;BME280;16320;53.954;9.506;2023-01-31T13:28:05;101062.34;;;6.01;100.00
29315;BME280;16320;53.954;9.506;2023-01-31T13:31:29;101047.56;;;6.02;100.00
29315;BME280;16320;53.954;9.506;2023-01-31T13:34:51;101058.75;;;6.05;100.00
29315;BME280;16320;53.954;9.506;2023-01-31T13:38:01;101039.59;;;6.07;100.00
29315;BME280;16320;53.954;9.506;2023-01-31T13:44:21;101039.56;;;6.08;100.00
29315;BME280;16320;53.954;9.506;2023-01-31T13:47:27;101038.66;;;6.09;100.00
29315;BME280;16320;53.954;9.506;2023-01-31T13:50:48;101049.97;;;6.10;100.00
29315;BME280;16320;53.954;9.506;2023-01-31T13:54:14;101046.38;;;6.12;100.00
29315;BME280;16320;53.954;9.506;2023-01-31T13:57:34;101047.38;;;6.08;100.00
29315;BME280;16320;53.954;9.506;2023-01-31T14:00:42;101034.22;;;6.13;100.00
29315;BME280;16320;53.954;9.506;2023-01-31T14:07:20;101049.19;;;6.06;100.00
29315;BME280;16320;53.954;9.506;2023-01-31T14:10:27;101043.03;;;6.09;100.00
29315;BME280;16320;53.954;9.506;2023-01-31T14:13:44;101045.66;;;6.07;100.00
29315;BME280;16320;53.954;9.506;2023-01-31T14:16:49;101047.38;;;6.08;100.00
29315;BME280;16320;53.954;9.506;2023-01-31T14:20:06;101052.72;;;6.03;100.00
29315;BME280;16320;53.954;9.506;2023-01-31T14:23:31;101048.28;;;6.07;100.00
29315;BME280;16320;53.954;9.506;2023-01-31T14:47:28;101022.66;;;5.90;100.00
29315;BME280;16320;53.954;9.506;2023-01-31T14:57:38;101033.00;;;5.93;100.00
29315;BME280;16320;53.954;9.506;2023-01-31T15:01:05;101024.25;;;5.94;100.00
29315;BME280;16320;53.954;9.506;2023-01-31T15:04:20;101025.13;;;5.96;100.00
29315;BME280;16320;53.954;9.506;2023-01-31T15:07:25;101026.78;;;5.99;100.00
29315;BME280;16320;53.954;9.506;2023-01-31T15:14:47;101041.41;;;6.04;100.00
29315;BME280;16320;53.954;9.506;2023-01-31T15:17:53;101032.88;;;5.98;100.00
29315;BME280;16320;53.954;9.506;2023-01-31T15:21:01;101033.75;;;5.98;100.00
29315;BME280;16320;53.954;9.506;2023-01-31T15:24:42;101044.19;;;5.98;100.00
29315;BME280;16320;53.954;9.506;2023-01-31T15:27:43;101037.25;;;5.96;100.00
29315;BME280;16320;53.954;9.506;2023-01-31T15:30:50;101028.63;;;5.94;100.00
29315;BME280;16320;53.954;9.506;2023-01-31T15:34:00;101021.03;;;5.84;100.00
29315;BME280;16320;53.954;9.506;2023-01-31T15:37:21;101027.09;;;5.86;100.00
29315;BME280;16320;53.954;9.506;2023-01-31T15:40:29;101033.31;;;5.81;100.00
29315;BME280;16320;53.954;9.506;2023-01-31T15:43:33;101031.78;;;5.74;100.00
29315;BME280;16320;53.954;9.506;2023-01-31T15:46:44;101039.59;;;5.74;100.00
29315;BME280;16320;53.954;9.506;2023-01-31T15:49:49;101036.53;;;5.58;100.00
29315;BME280;16320;53.954;9.506;2023-01-31T15:52:55;101048.94;;;5.48;100.00
29315;BME280;16320;53.954;9.506;2023-01-31T15:56:00;101052.00;;;5.29;100.00
29315;BME280;16320;53.954;9.506;2023-01-31T15:59:12;101042.78;;;5.16;100.00
29315;BME280;16320;53.954;9.506;2023-01-31T16:02:24;101032.78;;;4.99;100.00
29315;BME280;16320;53.954;9.506;2023-01-31T16:05:37;101023.47;;;4.87;100.00
29315;BME280;16320;53.954;9.506;2023-01-31T16:08:42;101029.66;;;4.83;100.00
29315;BME280;16320;53.954;9.506;2023-01-31T16:11:46;101008.09;;;4.78;100.00
29315;BME280;16320;53.954;9.506;2023-01-31T16:14:50;100977.59;;;4.83;100.00
29315;BME280;16320;53.954;9.506;2023-01-31T16:18:02;100935.84;;;4.88;100.00
29315;BME280;16320;53.954;9.506;2023-01-31T16:21:32;100912.06;;;5.02;100.00
29315;BME280;16320;53.954;9.506;2023-01-31T16:24:37;100905.09;;;5.04;100.00
29315;BME280;16320;53.954;9.506;2023-01-31T16:27:55;100873.59;;;5.13;100.00
29315;BME280;16320;53.954;9.506;2023-01-31T16:31:14;100864.75;;;5.20;100.00
29315;BME280;16320;53.954;9.506;2023-01-31T16:34:26;100850.88;;;5.18;100.00
29315;BME280;16320;53.954;9.506;2023-01-31T16:37:40;100842.09;;;5.22;100.00
29315;BME280;16320;53.954;9.506;2023-01-31T16:40:52;100828.44;;;5.14;100.00
29315;BME280;16320;53.954;9.506;2023-01-31T16:43:57;100826.03;;;5.06;100.00
29315;BME280;16320;53.954;9.506;2023-01-31T16:47:02;100812.47;;;4.95;100.00
29315;BME280;16320;53.954;9.506;2023-01-31T16:53:31;100821.22;;;4.92;100.00
29315;BME280;16320;53.954;9.506;2023-01-31T16:56:37;100821.88;;;5.01;100.00
29315;BME280;16320;53.954;9.506;2023-01-31T16:59:53;100799.91;;;5.09;100.00
29315;BME280;16320;53.954;9.506;2023-01-31T17:02:59;100816.22;;;5.16;100.00
29315;BME280;16320;53.954;9.506;2023-01-31T17:06:05;100807.53;;;5.17;100.00
29315;BME280;16320;53.954;9.506;2023-01-31T17:09:17;100811.03;;;5.16;100.00
29315;BME280;16320;53.954;9.506;2023-01-31T17:12:29;100807.53;;;5.17;100.00
29315;BME280;16320;53.954;9.506;2023-01-31T17:15:34;100800.69;;;5.13;100.00
29315;BME280;16320;53.954;9.506;2023-01-31T17:18:39;100809.41;;;5.12;100.00
29315;BME280;16320;53.954;9.506;2023-01-31T17:21:43;100792.16;;;5.08;100.00
29315;BME280;16320;53.954;9.506;2023-01-31T17:24:49;100804.44;;;5.03;100.00
29315;BME280;16320;53.954;9.506;2023-01-31T17:27:54;100810.72;;;4.95;100.00
29315;BME280;16320;53.954;9.506;2023-01-31T17:30:58;100803.03;;;4.91;100.00
29315;BME280;16320;53.954;9.506;2023-01-31T17:34:06;100804.78;;;4.90;100.00
29315;BME280;16320;53.954;9.506;2023-01-31T17:37:15;100810.88;;;4.89;100.00
29315;BME280;16320;53.954;9.506;2023-01-31T17:40:26;100806.50;;;4.91;100.00
29315;BME280;16320;53.954;9.506;2023-01-31T17:43:31;100801.38;;;4.88;100.00
29315;BME280;16320;53.954;9.506;2023-01-31T17:46:37;100785.75;;;4.88;100.00
29315;BME280;16320;53.954;9.506;2023-01-31T17:49:41;100793.63;;;4.85;100.00
29315;BME280;16320;53.954;9.506;2023-01-31T17:52:47;100795.56;;;4.79;100.00
29315;BME280;16320;53.954;9.506;2023-01-31T17:55:52;100798.72;;;4.90;100.00
29315;BME280;16320;53.954;9.506;2023-01-31T17:58:57;100794.50;;;4.86;100.00
29315;BME280;16320;53.954;9.506;2023-01-31T18:02:02;100773.78;;;4.83;100.00
29315;BME280;16320;53.954;9.506;2023-01-31T18:05:12;100785.22;;;4.75;100.00
29315;BME280;16320;53.954;9.506;2023-01-31T18:08:18;100772.00;;;4.83;100.00
29315;BME280;16320;53.954;9.506;2023-01-31T18:11:23;100770.22;;;4.85;100.00
29315;BME280;16320;53.954;9.506;2023-01-31T18:14:27;100779.94;;;4.79;100.00
29315;BME280;16320;53.954;9.506;2023-01-31T18:17:31;100778.97;;;4.83;100.00
29315;BME280;16320;53.954;9.506;2023-01-31T18:20:37;100774.50;;;4.88;100.00
29315;BME280;16320;53.954;9.506;2023-01-31T18:23:42;100769.13;;;4.94;100.00
29315;BME280;16320;53.954;9.506;2023-01-31T18:26:47;100783.72;;;5.00;100.00
29315;BME280;16320;53.954;9.506;2023-01-31T18:29:52;100780.22;;;5.01;100.00
29315;BME280;16320;53.954;9.506;2023-01-31T18:32:59;100785.22;;;5.07;100.00
29315;BME280;16320;53.954;9.506;2023-01-31T18:36:04;100790.41;;;5.08;100.00